createdAt,value
2023-07-21T00:00:21.701Z,3.90
2023-07-21T00:02:23.567Z,4.20
2023-07-21T00:04:25.210Z,4.07
2023-07-21T00:06:27.390Z,3.63
2023-07-21T00:08:29.513Z,3.70
2023-07-21T00:10:31.207Z,3.60
2023-07-21T00:12:34.629Z,4.00
2023-07-21T00:14:36.344Z,3.80
2023-07-21T00:16:38.029Z,4.17
2023-07-21T00:18:39.789Z,3.80
2023-07-21T00:20:41.507Z,4.03
2023-07-21T00:22:45.560Z,3.87
2023-07-21T00:24:47.211Z,4.37
2023-07-21T00:26:48.906Z,3.80
2023-07-21T00:28:52.017Z,4.57
2023-07-21T00:30:53.692Z,4.20
2023-07-21T00:32:55.462Z,3.73
2023-07-21T00:34:57.322Z,3.40
2023-07-21T00:36:59.005Z,3.70
2023-07-21T00:39:00.634Z,3.70
2023-07-21T00:41:02.311Z,4.20
2023-07-21T00:43:04.210Z,3.90
2023-07-21T00:45:08.842Z,3.90
2023-07-21T00:47:10.940Z,3.53
2023-07-21T00:49:12.621Z,4.33
2023-07-21T00:51:14.367Z,3.27
2023-07-21T00:53:16.836Z,3.23
2023-07-21T00:55:19.317Z,4.03
2023-07-21T00:57:22.694Z,3.83
2023-07-21T00:59:24.402Z,3.77
2023-07-21T01:01:27.584Z,3.27
2023-07-21T01:03:29.574Z,3.93
2023-07-21T01:05:34.184Z,3.63
2023-07-21T01:07:37.459Z,3.60
2023-07-21T01:09:40.658Z,4.50
2023-07-21T01:11:42.525Z,4.67
2023-07-21T01:13:44.261Z,3.97
2023-07-21T01:15:50.601Z,4.07
2023-07-21T01:17:54.707Z,4.13
2023-07-21T01:19:59.236Z,4.00
2023-07-21T01:22:07.148Z,3.40
2023-07-21T01:24:16.343Z,4.10
2023-07-21T01:26:20.432Z,4.00
2023-07-21T01:28:22.635Z,4.10
2023-07-21T01:30:25.212Z,4.00
2023-07-21T01:32:27.297Z,3.70
2023-07-21T01:34:30.816Z,4.20
2023-07-21T01:36:32.714Z,4.50
2023-07-21T01:38:35.699Z,4.07
2023-07-21T01:40:38.392Z,3.83
2023-07-21T01:42:43.982Z,3.90
2023-07-21T01:44:45.764Z,3.20
2023-07-21T01:46:47.521Z,3.80
2023-07-21T01:48:49.278Z,3.30
2023-07-21T01:50:53.001Z,3.83
2023-07-21T01:52:57.776Z,3.30
2023-07-21T01:55:04.744Z,3.00
2023-07-21T01:57:08.609Z,3.50
2023-07-21T01:59:16.870Z,4.10
2023-07-21T02:01:20.776Z,4.00
2023-07-21T02:03:24.111Z,3.80
2023-07-21T02:05:27.111Z,4.07
2023-07-21T02:07:28.744Z,4.00
2023-07-21T02:09:32.493Z,3.73
2023-07-21T02:11:34.387Z,4.03
2023-07-21T02:13:36.298Z,3.80
2023-07-21T02:15:39.382Z,4.13
2023-07-21T02:17:41.523Z,3.80
2023-07-21T02:19:43.470Z,4.53
2023-07-21T02:21:45.323Z,3.30
2023-07-21T02:23:47.053Z,3.93
2023-07-21T02:25:49.259Z,4.20
2023-07-21T02:27:51.340Z,3.77
2023-07-21T02:29:52.999Z,3.70
2023-07-21T02:31:56.425Z,4.23
2023-07-21T02:33:58.120Z,3.60
2023-07-21T02:36:01.317Z,3.57
2023-07-21T02:38:02.957Z,3.87
2023-07-21T02:40:05.677Z,3.93
2023-07-21T02:42:08.065Z,4.27
2023-07-21T02:44:09.727Z,3.90
2023-07-21T02:46:11.373Z,3.80
2023-07-21T02:48:14.424Z,4.20
2023-07-21T02:50:17.263Z,4.23
2023-07-21T02:52:19.224Z,3.90
2023-07-21T02:54:20.992Z,4.43
2023-07-21T02:56:22.940Z,4.60
2023-07-21T02:58:25.319Z,4.10
2023-07-21T03:00:27.598Z,3.70
2023-07-21T03:02:30.001Z,4.17
2023-07-21T03:04:33.243Z,4.27
2023-07-21T03:06:35.256Z,4.03
2023-07-21T03:08:39.556Z,4.03
2023-07-21T03:10:41.233Z,4.60
2023-07-21T03:12:43.298Z,4.87
2023-07-21T03:14:44.926Z,4.80
2023-07-21T03:16:46.553Z,4.80
2023-07-21T03:18:48.162Z,4.70
2023-07-21T03:20:59.419Z,4.07
2023-07-21T03:23:01.141Z,4.70
2023-07-21T03:25:02.866Z,4.20
2023-07-21T03:27:05.105Z,4.20
2023-07-21T03:29:06.725Z,4.37
2023-07-21T03:31:10.774Z,5.30
2023-07-21T03:33:12.500Z,4.43
2023-07-21T03:35:14.260Z,4.10
2023-07-21T03:37:17.559Z,4.17
2023-07-21T03:39:19.246Z,4.30
2023-07-21T03:41:23.251Z,4.07
2023-07-21T03:43:24.963Z,4.03
2023-07-21T03:45:26.687Z,4.60
2023-07-21T03:47:28.399Z,4.33
2023-07-21T03:49:30.337Z,3.83
2023-07-21T03:51:32.018Z,3.63
2023-07-21T03:53:37.977Z,4.27
2023-07-21T03:55:39.898Z,4.50
2023-07-21T03:57:41.482Z,4.43
2023-07-21T03:59:43.150Z,4.67
2023-07-21T04:01:44.874Z,4.30
2023-07-21T04:03:46.603Z,4.80
2023-07-21T04:05:48.320Z,4.10
2023-07-21T04:07:49.956Z,4.73
2023-07-21T04:09:53.137Z,5.47
2023-07-21T04:11:54.970Z,5.30
2023-07-21T04:13:56.621Z,5.30
2023-07-21T04:15:58.267Z,5.00
2023-07-21T04:17:59.978Z,4.30
2023-07-21T04:20:01.632Z,5.50
2023-07-21T04:22:03.620Z,4.90
2023-07-21T04:24:05.404Z,6.00
2023-07-21T04:26:08.439Z,6.50
2023-07-21T04:28:09.994Z,7.00
2023-07-21T04:30:12.481Z,6.80
2023-07-21T04:32:14.132Z,7.60
2023-07-21T04:34:15.813Z,7.83
2023-07-21T04:36:17.463Z,7.60
2023-07-21T04:38:19.113Z,8.57
2023-07-21T04:40:20.858Z,8.43
2023-07-21T04:42:23.978Z,8.53
2023-07-21T04:44:25.605Z,8.40
2023-07-21T04:46:27.409Z,10.77
2023-07-21T04:48:29.328Z,8.10
2023-07-21T04:50:30.947Z,8.47
2023-07-21T04:52:32.909Z,8.70
2023-07-21T04:54:34.461Z,8.73
2023-07-21T04:56:36.164Z,8.10
2023-07-21T04:58:39.300Z,9.50
2023-07-21T05:00:41.097Z,8.70
2023-07-21T05:02:42.947Z,8.00
2023-07-21T05:04:44.550Z,8.43
2023-07-21T05:06:49.377Z,7.00
2023-07-21T05:08:51.039Z,8.10
2023-07-21T05:10:54.344Z,9.27
2023-07-21T05:12:56.151Z,8.83
2023-07-21T05:14:59.134Z,9.53
2023-07-21T05:17:00.783Z,7.97
2023-07-21T05:19:02.586Z,8.33
2023-07-21T05:21:04.403Z,8.00
2023-07-21T05:23:06.004Z,6.80
2023-07-21T05:25:08.368Z,8.07
2023-07-21T05:27:10.013Z,8.00
2023-07-21T05:29:14.634Z,8.13
2023-07-21T05:31:18.211Z,7.77
2023-07-21T05:33:19.972Z,7.63
2023-07-21T05:35:21.561Z,7.23
2023-07-21T05:37:23.192Z,7.70
2023-07-21T05:39:24.978Z,7.27
2023-07-21T05:41:26.947Z,8.47
2023-07-21T05:43:28.689Z,8.63
2023-07-21T05:45:30.382Z,8.03
2023-07-21T05:47:33.520Z,8.13
2023-07-21T05:49:35.192Z,9.03
2023-07-21T05:51:37.193Z,8.53
2023-07-21T05:53:38.875Z,9.10
2023-07-21T05:55:41.784Z,8.73
2023-07-21T05:57:43.659Z,9.60
2023-07-21T05:59:45.323Z,9.17
2023-07-21T06:01:47.044Z,8.47
2023-07-21T06:03:50.177Z,8.63
2023-07-21T06:05:52.720Z,8.90
2023-07-21T06:07:54.669Z,8.43
2023-07-21T06:09:56.519Z,9.20
2023-07-21T06:11:58.208Z,10.17
2023-07-21T06:13:59.969Z,9.17
2023-07-21T06:16:01.783Z,7.77
2023-07-21T06:18:03.559Z,8.53
2023-07-21T06:20:08.149Z,5.20
2023-07-21T06:22:09.973Z,7.87
2023-07-21T06:24:11.722Z,6.10
2023-07-21T06:26:13.566Z,9.27
2023-07-21T06:28:15.294Z,10.10
2023-07-21T06:30:17.408Z,8.50
2023-07-21T06:32:19.167Z,10.33
2023-07-21T06:34:20.912Z,9.20
2023-07-21T06:36:24.130Z,8.90
2023-07-21T06:38:25.979Z,10.20
2023-07-21T06:40:28.085Z,5.20
2023-07-21T06:42:29.890Z,6.50
2023-07-21T06:44:31.784Z,7.90
2023-07-21T06:46:33.823Z,8.03
2023-07-21T06:48:35.670Z,7.80
2023-07-21T06:50:37.318Z,5.20
2023-07-21T06:52:40.485Z,5.20
2023-07-21T06:54:42.189Z,5.87
2023-07-21T06:56:43.844Z,6.77
2023-07-21T06:58:45.540Z,6.20
2023-07-21T07:00:47.279Z,7.20
2023-07-21T07:02:49.262Z,6.47
2023-07-21T07:04:51.332Z,7.40
2023-07-21T07:06:53.495Z,8.20
2023-07-21T07:08:56.855Z,7.80
2023-07-21T07:10:59.164Z,7.70
2023-07-21T07:13:00.873Z,7.50
2023-07-21T07:15:02.550Z,8.13
2023-07-21T07:17:04.640Z,6.40
2023-07-21T07:19:06.678Z,7.40
2023-07-21T07:21:08.384Z,7.83
2023-07-21T07:23:12.783Z,7.87
2023-07-21T07:25:16.201Z,7.63
2023-07-21T07:27:17.901Z,8.20
2023-07-21T07:29:19.635Z,7.80
2023-07-21T07:31:21.713Z,8.80
2023-07-21T07:33:23.780Z,8.60
2023-07-21T07:35:25.642Z,8.30
2023-07-21T07:37:30.204Z,9.00
2023-07-21T07:39:31.979Z,8.00
2023-07-21T07:41:35.551Z,9.07
2023-07-21T07:43:37.783Z,9.30
2023-07-21T07:45:39.618Z,9.80
2023-07-21T07:47:41.470Z,7.33
2023-07-21T07:49:43.358Z,10.20
2023-07-21T07:51:44.982Z,10.80
2023-07-21T07:53:46.629Z,10.90
2023-07-21T07:55:48.259Z,12.10
2023-07-21T07:57:51.332Z,12.30
2023-07-21T07:59:53.058Z,12.10
2023-07-21T08:01:54.765Z,10.57
2023-07-21T08:03:56.756Z,11.50
2023-07-21T08:06:00.065Z,12.10
2023-07-21T08:08:01.859Z,11.20
2023-07-21T08:10:04.114Z,10.10
2023-07-21T08:12:06.522Z,12.93
2023-07-21T08:14:09.555Z,12.03
2023-07-21T08:16:13.781Z,6.33
2023-07-21T08:18:15.735Z,6.00
2023-07-21T08:20:17.855Z,7.30
2023-07-21T08:22:19.482Z,6.50
2023-07-21T08:24:21.353Z,7.10
2023-07-21T08:26:23.205Z,9.07
2023-07-21T08:28:25.089Z,6.50
2023-07-21T08:30:28.387Z,11.43
2023-07-21T08:32:30.759Z,11.80
2023-07-21T08:34:32.444Z,10.70
2023-07-21T08:36:48.638Z,6.33
2023-07-21T08:38:55.720Z,6.77
2023-07-21T08:41:04.055Z,5.97
2023-07-21T08:43:06.063Z,7.43
2023-07-21T08:45:11.397Z,10.23
2023-07-21T08:47:16.169Z,7.10
2023-07-21T08:49:18.336Z,6.23
2023-07-21T08:51:20.007Z,9.83
2023-07-21T08:53:22.172Z,5.53
2023-07-21T08:55:24.079Z,6.80
2023-07-21T08:57:25.808Z,6.93
2023-07-21T08:59:27.486Z,5.70
2023-07-21T09:01:29.311Z,8.17
2023-07-21T09:03:32.379Z,5.90
2023-07-21T09:05:34.225Z,6.23
2023-07-21T09:07:36.372Z,5.00
2023-07-21T09:09:38.048Z,6.63
2023-07-21T09:11:39.689Z,6.90
2023-07-21T09:13:43.024Z,6.60
2023-07-21T09:15:52.118Z,5.60
2023-07-21T09:17:54.127Z,5.70
2023-07-21T09:19:57.238Z,5.20
2023-07-21T09:21:58.855Z,5.20
2023-07-21T09:24:02.223Z,5.73
2023-07-21T09:26:04.053Z,5.00
2023-07-21T09:28:05.638Z,4.90
2023-07-21T09:30:08.228Z,5.10
2023-07-21T09:32:14.331Z,5.67
2023-07-21T09:34:15.900Z,5.57
2023-07-21T09:36:18.977Z,5.23
2023-07-21T09:38:22.782Z,5.60
2023-07-21T09:40:28.473Z,4.57
2023-07-21T09:42:30.638Z,4.83
2023-07-21T09:44:32.929Z,5.20
2023-07-21T09:46:34.914Z,4.60
2023-07-21T09:48:37.579Z,5.20
2023-07-21T09:50:40.693Z,4.00
2023-07-21T09:52:47.606Z,4.40
2023-07-21T09:54:56.541Z,4.63
2023-07-21T09:56:59.089Z,4.20
2023-07-21T09:59:03.391Z,4.60
2023-07-21T10:01:06.177Z,4.20
2023-07-21T10:03:08.385Z,5.17
2023-07-21T10:05:10.654Z,4.53
2023-07-21T10:07:13.240Z,4.00
2023-07-21T10:09:19.296Z,4.47
2023-07-21T10:11:21.413Z,3.67
2023-07-21T10:13:25.964Z,4.33
2023-07-21T10:15:30.664Z,3.70
2023-07-21T10:17:44.116Z,3.97
2023-07-21T10:19:46.120Z,3.90
2023-07-21T10:21:49.624Z,4.50
2023-07-21T10:23:52.388Z,3.47
2023-07-21T10:25:57.506Z,3.90
2023-07-21T10:28:05.640Z,4.90
2023-07-21T10:30:22.375Z,4.30
2023-07-21T10:32:25.868Z,3.87
2023-07-21T10:34:32.550Z,3.50
2023-07-21T10:36:44.447Z,4.37
2023-07-21T10:38:46.429Z,4.17
2023-07-21T10:40:48.036Z,3.80
2023-07-21T10:42:51.099Z,4.20
2023-07-21T10:44:52.745Z,4.03
2023-07-21T10:46:54.632Z,3.83
2023-07-21T10:48:56.362Z,3.80
2023-07-21T10:50:57.901Z,4.30
2023-07-21T10:52:59.514Z,3.80
2023-07-21T10:55:01.290Z,3.77
2023-07-21T10:57:03.416Z,3.83
2023-07-21T10:59:08.156Z,3.63
2023-07-21T11:01:11.329Z,3.73
2023-07-21T11:03:13.681Z,3.07
2023-07-21T11:05:16.880Z,4.07
2023-07-21T11:07:18.703Z,3.47
2023-07-21T11:09:21.163Z,3.50
2023-07-21T11:11:23.028Z,3.40
2023-07-21T11:13:32.263Z,3.80
2023-07-21T11:15:36.388Z,3.07
2023-07-21T11:17:39.645Z,3.20
2023-07-21T11:19:41.398Z,3.80
2023-07-21T11:21:43.423Z,3.30
2023-07-21T11:23:45.685Z,3.23
2023-07-21T11:26:04.574Z,3.60
2023-07-21T11:28:06.339Z,3.40
2023-07-21T11:30:09.469Z,3.10
2023-07-21T11:32:19.546Z,3.23
2023-07-21T11:34:23.042Z,3.10
2023-07-21T11:36:25.269Z,3.20
2023-07-21T11:38:26.965Z,3.00
2023-07-21T11:40:33.706Z,3.17
2023-07-21T11:42:45.870Z,2.90
2023-07-21T11:44:47.500Z,2.80
2023-07-21T11:46:54.896Z,3.20
2023-07-21T11:48:58.161Z,2.90
2023-07-21T11:50:59.822Z,2.67
2023-07-21T11:53:02.824Z,3.23
2023-07-21T11:55:06.207Z,2.70
2023-07-21T11:57:08.847Z,3.10
2023-07-21T11:59:10.636Z,2.87
2023-07-21T12:01:12.371Z,2.97
2023-07-21T12:03:14.227Z,2.30
2023-07-21T12:05:17.496Z,2.70
2023-07-21T12:07:19.199Z,2.27
2023-07-21T12:09:21.091Z,2.37
2023-07-21T12:11:22.858Z,2.73
2023-07-21T12:13:24.602Z,2.73
2023-07-21T12:15:26.443Z,2.00
2023-07-21T12:17:28.251Z,2.77
2023-07-21T12:19:30.133Z,2.30
2023-07-21T12:21:38.713Z,2.93
2023-07-21T12:23:42.899Z,2.83
2023-07-21T12:25:44.632Z,2.27
2023-07-21T12:27:46.485Z,2.80
2023-07-21T12:29:48.310Z,2.87
2023-07-21T12:31:50.226Z,2.47
2023-07-21T12:33:52.415Z,2.57
2023-07-21T12:35:56.249Z,2.57
2023-07-21T12:38:01.115Z,2.00
2023-07-21T12:40:02.803Z,2.60
2023-07-21T12:42:04.940Z,2.63
2023-07-21T12:44:06.571Z,2.30
2023-07-21T12:46:08.270Z,2.20
2023-07-21T12:48:09.991Z,2.37
2023-07-21T12:50:11.879Z,2.53
2023-07-21T12:52:13.581Z,2.30
2023-07-21T12:54:16.761Z,2.47
2023-07-21T12:56:18.508Z,1.83
2023-07-21T12:58:21.257Z,2.20
2023-07-21T13:00:23.730Z,2.20
2023-07-21T13:02:25.729Z,2.53
2023-07-21T13:04:27.825Z,2.43
2023-07-21T13:06:31.843Z,2.17
2023-07-21T13:08:34.688Z,2.23
2023-07-21T13:10:38.020Z,2.33
2023-07-21T13:12:40.026Z,2.43
2023-07-21T13:14:42.247Z,2.40
2023-07-21T13:16:44.340Z,3.07
2023-07-21T13:18:47.887Z,2.30
2023-07-21T13:20:50.075Z,2.33
2023-07-21T13:22:51.686Z,2.30
2023-07-21T13:24:53.402Z,2.57
2023-07-21T13:26:56.599Z,2.47
2023-07-21T13:28:58.286Z,2.90
2023-07-21T13:31:00.068Z,2.80
2023-07-21T13:33:01.798Z,2.40
2023-07-21T13:35:03.693Z,3.00
2023-07-21T13:37:05.555Z,2.17
2023-07-21T13:39:07.233Z,2.67
2023-07-21T13:41:10.505Z,2.70
2023-07-21T13:43:13.545Z,2.60
2023-07-21T13:45:15.376Z,2.60
2023-07-21T13:47:17.009Z,2.60
2023-07-21T13:49:19.917Z,2.50
2023-07-21T13:51:21.574Z,2.60
2023-07-21T13:53:23.328Z,3.10
2023-07-21T13:55:25.025Z,2.50
2023-07-21T13:57:30.030Z,2.97
2023-07-21T13:59:33.023Z,3.03
2023-07-21T14:01:34.751Z,3.23
2023-07-21T14:03:36.701Z,2.97
2023-07-21T14:05:38.599Z,2.80
2023-07-21T14:07:40.294Z,3.77
2023-07-21T14:09:42.258Z,3.23
2023-07-21T14:11:43.962Z,3.03
2023-07-21T14:13:45.782Z,2.73
2023-07-21T14:15:48.907Z,3.07
2023-07-21T14:17:50.709Z,2.97
2023-07-21T14:19:53.081Z,3.03
2023-07-21T14:21:54.995Z,3.50
2023-07-21T14:23:59.004Z,3.17
2023-07-21T14:26:01.373Z,3.90
2023-07-21T14:28:03.097Z,3.70
2023-07-21T14:30:06.095Z,2.97
2023-07-21T14:32:09.735Z,3.47
2023-07-21T14:34:11.351Z,3.70
2023-07-21T14:36:13.135Z,3.40
2023-07-21T14:38:14.784Z,3.17
2023-07-21T14:40:16.685Z,2.60
2023-07-21T14:42:21.005Z,3.10
2023-07-21T14:44:23.000Z,2.93
2023-07-21T14:46:25.496Z,2.70
2023-07-21T14:48:28.987Z,3.60
2023-07-21T14:50:30.958Z,3.93
2023-07-21T14:52:32.904Z,3.03
2023-07-21T14:54:34.531Z,3.53
2023-07-21T14:56:36.381Z,3.20
2023-07-21T14:58:38.283Z,3.53
2023-07-21T15:00:39.949Z,3.27
2023-07-21T15:02:42.075Z,3.33
2023-07-21T15:04:46.010Z,3.00
2023-07-21T15:06:47.755Z,3.13
2023-07-21T15:08:49.377Z,3.40
2023-07-21T15:10:51.082Z,3.87
2023-07-21T15:12:52.686Z,3.90
2023-07-21T15:14:54.464Z,3.03
2023-07-21T15:16:56.234Z,3.90
2023-07-21T15:18:57.942Z,3.40
2023-07-21T15:21:00.953Z,3.27
2023-07-21T15:23:02.726Z,3.23
2023-07-21T15:25:05.144Z,3.10
2023-07-21T15:27:06.938Z,3.13
2023-07-21T15:29:11.852Z,2.87
2023-07-21T15:31:13.736Z,5.70
2023-07-21T15:33:15.601Z,3.13
2023-07-21T15:35:17.675Z,4.60
2023-07-21T15:37:21.012Z,2.97
2023-07-21T15:39:23.126Z,3.30
2023-07-21T15:41:25.151Z,3.20
2023-07-21T15:43:27.266Z,2.50
2023-07-21T15:45:28.922Z,3.57
2023-07-21T15:47:30.645Z,3.10
2023-07-21T15:49:45.872Z,3.07
2023-07-21T15:51:51.905Z,2.77
2023-07-21T15:54:11.065Z,2.60
2023-07-21T15:56:16.615Z,2.73
2023-07-21T15:58:18.865Z,2.50
2023-07-21T16:00:20.544Z,2.90
2023-07-21T16:02:22.319Z,2.60
2023-07-21T16:04:24.063Z,2.43
2023-07-21T16:06:25.840Z,2.40
2023-07-21T16:08:27.548Z,2.57
2023-07-21T16:10:30.790Z,2.53
2023-07-21T16:12:32.683Z,3.90
2023-07-21T16:14:34.308Z,3.30
2023-07-21T16:16:36.062Z,3.80
2023-07-21T16:18:37.784Z,10.80
2023-07-21T16:20:39.476Z,4.60
2023-07-21T16:22:41.768Z,3.57
2023-07-21T16:24:44.696Z,4.80
2023-07-21T16:26:47.881Z,4.60
2023-07-21T16:28:49.624Z,3.70
2023-07-21T16:30:54.374Z,3.53
2023-07-21T16:32:56.468Z,3.90
2023-07-21T16:34:58.284Z,4.60
2023-07-21T16:36:59.970Z,4.13
2023-07-21T16:39:01.764Z,3.40
2023-07-21T16:41:03.867Z,3.80
2023-07-21T16:43:06.832Z,4.90
2023-07-21T16:45:10.216Z,2.70
2023-07-21T16:47:11.788Z,4.10
2023-07-21T16:49:13.413Z,3.60
2023-07-21T16:51:15.061Z,5.20
2023-07-21T16:53:16.670Z,3.40
2023-07-21T16:55:18.378Z,3.30
2023-07-21T16:57:20.045Z,4.37
2023-07-21T16:59:23.097Z,3.87
2023-07-21T17:01:25.409Z,3.80
2023-07-21T17:03:27.408Z,3.80
2023-07-21T17:05:32.345Z,3.70
2023-07-21T17:07:34.845Z,3.03
2023-07-21T17:09:36.582Z,3.30
2023-07-21T17:11:38.438Z,3.00
2023-07-21T17:13:40.275Z,3.53
2023-07-21T17:15:43.562Z,3.17
2023-07-21T17:17:45.177Z,2.97
2023-07-21T17:19:47.070Z,3.60
2023-07-21T17:21:48.919Z,3.07
2023-07-21T17:23:50.671Z,2.77
2023-07-21T17:25:52.334Z,3.03
2023-07-21T17:27:54.010Z,3.40
2023-07-21T17:29:55.681Z,3.57
2023-07-21T17:31:59.156Z,2.90
2023-07-21T17:34:01.029Z,3.83
2023-07-21T17:36:03.319Z,4.60
2023-07-21T17:38:04.948Z,3.80
2023-07-21T17:40:07.689Z,3.50
2023-07-21T17:42:09.374Z,3.03
2023-07-21T17:44:11.121Z,3.37
2023-07-21T17:46:12.989Z,3.60
2023-07-21T17:48:18.603Z,3.00
2023-07-21T17:50:21.024Z,3.43
2023-07-21T17:52:22.760Z,3.00
2023-07-21T17:54:24.766Z,3.70
2023-07-21T17:56:27.123Z,3.30
2023-07-21T17:58:31.493Z,3.10
2023-07-21T18:00:33.188Z,3.27
2023-07-21T18:02:34.906Z,2.93
2023-07-21T18:04:38.928Z,2.93
2023-07-21T18:06:41.076Z,3.00
2023-07-21T18:08:42.745Z,2.97
2023-07-21T18:10:44.509Z,3.57
2023-07-21T18:12:46.180Z,3.47
2023-07-21T18:14:48.791Z,3.47
2023-07-21T18:16:52.182Z,3.20
2023-07-21T18:18:53.891Z,3.17
2023-07-21T18:21:05.035Z,4.47
2023-07-21T18:23:06.757Z,4.17
2023-07-21T18:25:09.113Z,2.60
2023-07-21T18:27:12.019Z,2.57
2023-07-21T18:29:13.670Z,2.83
2023-07-21T18:31:15.356Z,2.83
2023-07-21T18:33:17.058Z,2.50
2023-07-21T18:35:18.763Z,2.93
2023-07-21T18:37:21.794Z,2.67
2023-07-21T18:39:23.577Z,3.07
2023-07-21T18:41:26.238Z,2.40
2023-07-21T18:43:29.348Z,2.00
2023-07-21T18:45:31.552Z,2.40
2023-07-21T18:47:33.310Z,1.90
2023-07-21T18:49:35.076Z,2.43
2023-07-21T18:51:37.518Z,2.37
2023-07-21T18:53:40.829Z,2.50
2023-07-21T18:55:43.324Z,2.37
2023-07-21T18:57:46.281Z,2.80
2023-07-21T18:59:47.968Z,3.37
2023-07-21T19:01:49.742Z,2.60
2023-07-21T19:03:51.710Z,3.67
2023-07-21T19:05:53.603Z,3.13
2023-07-21T19:07:55.873Z,3.10
2023-07-21T19:09:59.723Z,2.77
2023-07-21T19:12:01.482Z,2.70
2023-07-21T19:14:03.335Z,3.00
2023-07-21T19:16:08.772Z,2.93
2023-07-21T19:18:10.406Z,2.43
2023-07-21T19:20:12.292Z,2.80
2023-07-21T19:22:14.332Z,2.13
2023-07-21T19:24:17.357Z,2.37
2023-07-21T19:26:20.748Z,2.30
2023-07-21T19:28:25.083Z,2.20
2023-07-21T19:30:26.838Z,2.73
2023-07-21T19:32:28.862Z,2.63
2023-07-21T19:34:33.902Z,2.90
2023-07-21T19:36:35.951Z,3.33
2023-07-21T19:38:37.997Z,2.73
2023-07-21T19:40:42.839Z,3.30
2023-07-21T19:42:46.499Z,3.37
2023-07-21T19:44:51.187Z,3.90
2023-07-21T19:46:53.249Z,3.13
2023-07-21T19:48:55.956Z,2.90
2023-07-21T19:50:57.603Z,2.60
2023-07-21T19:52:59.682Z,3.20
2023-07-21T19:55:01.653Z,2.60
2023-07-21T19:57:04.345Z,2.50
2023-07-21T19:59:07.486Z,3.00
2023-07-21T20:01:10.405Z,2.80
2023-07-21T20:03:12.735Z,2.77
2023-07-21T20:05:17.368Z,2.63
2023-07-21T20:07:20.241Z,2.40
2023-07-21T20:09:22.492Z,3.10
2023-07-21T20:11:25.087Z,3.00
2023-07-21T20:13:27.778Z,3.10
2023-07-21T20:15:31.127Z,2.63
2023-07-21T20:17:32.997Z,2.40
2023-07-21T20:19:35.121Z,2.70
2023-07-21T20:21:37.143Z,2.53
2023-07-21T20:23:38.929Z,3.17
2023-07-21T20:25:42.184Z,2.90
2023-07-21T20:27:44.362Z,2.57
2023-07-21T20:29:47.363Z,2.60
2023-07-21T20:31:51.592Z,2.67
2023-07-21T20:33:54.724Z,2.87
2023-07-21T20:35:56.643Z,2.33
2023-07-21T20:38:02.171Z,2.40
2023-07-21T20:40:04.949Z,2.73
2023-07-21T20:42:08.475Z,2.53
2023-07-21T20:44:10.196Z,2.97
2023-07-21T20:46:11.962Z,3.07
2023-07-21T20:48:15.292Z,3.27
2023-07-21T20:50:17.192Z,3.27
2023-07-21T20:52:19.132Z,2.90
2023-07-21T20:54:20.789Z,3.80
2023-07-21T20:56:22.546Z,3.20
2023-07-21T20:58:25.250Z,2.70
2023-07-21T21:00:27.423Z,3.20
2023-07-21T21:02:29.639Z,3.40
2023-07-21T21:04:32.722Z,2.63
2023-07-21T21:06:35.569Z,3.20
2023-07-21T21:08:38.984Z,3.27
2023-07-21T21:10:41.407Z,2.97
2023-07-21T21:12:43.731Z,2.53
2023-07-21T21:14:45.897Z,3.47
2023-07-21T21:16:48.161Z,3.27
2023-07-21T21:18:49.956Z,3.13
2023-07-21T21:20:55.320Z,3.00
2023-07-21T21:22:57.723Z,3.23
2023-07-21T21:24:59.683Z,2.90
2023-07-21T21:27:01.614Z,2.93
2023-07-21T21:29:04.360Z,3.10
2023-07-21T21:31:06.059Z,3.20
2023-07-21T21:33:08.211Z,2.73
2023-07-21T21:35:10.629Z,2.90
2023-07-21T21:37:16.544Z,3.23
2023-07-21T21:39:18.458Z,3.07
2023-07-21T21:41:20.975Z,3.70
2023-07-21T21:43:23.371Z,3.33
2023-07-21T21:45:25.254Z,3.50
2023-07-21T21:47:26.927Z,3.47
2023-07-21T21:49:28.902Z,3.60
2023-07-21T21:51:30.947Z,3.47
2023-07-21T21:53:33.939Z,4.00
2023-07-21T21:55:37.137Z,3.60
2023-07-21T21:57:39.791Z,3.77
2023-07-21T21:59:42.899Z,3.20
2023-07-21T22:01:44.892Z,3.53
2023-07-21T22:03:49.199Z,3.50
2023-07-21T22:05:51.251Z,3.40
2023-07-21T22:07:54.913Z,3.20
2023-07-21T22:09:57.966Z,3.33
2023-07-21T22:11:59.576Z,3.47
2023-07-21T22:14:01.485Z,3.43
2023-07-21T22:16:06.655Z,3.70
2023-07-21T22:18:08.539Z,4.23
2023-07-21T22:20:12.247Z,3.77
2023-07-21T22:22:14.449Z,3.63
2023-07-21T22:24:16.104Z,4.47
2023-07-21T22:26:19.276Z,4.10
2023-07-21T22:28:24.091Z,3.77
2023-07-21T22:30:25.727Z,3.53
2023-07-21T22:32:27.668Z,3.73
2023-07-21T22:34:29.460Z,3.60
2023-07-21T22:36:31.083Z,3.27
2023-07-21T22:38:32.750Z,3.57
2023-07-21T22:40:34.450Z,3.37
2023-07-21T22:42:37.515Z,2.73
2023-07-21T22:44:39.208Z,3.53
2023-07-21T22:46:40.839Z,3.87
2023-07-21T22:48:42.448Z,2.83
2023-07-21T22:50:43.997Z,3.67
2023-07-21T22:52:45.850Z,3.50
2023-07-21T22:54:47.466Z,3.93
2023-07-21T22:56:49.249Z,4.30
2023-07-21T22:58:52.513Z,3.77
2023-07-21T23:00:54.192Z,3.60
2023-07-21T23:02:56.121Z,3.63
2023-07-21T23:04:57.805Z,3.50
2023-07-21T23:06:59.439Z,3.10
2023-07-21T23:09:01.105Z,3.00
2023-07-21T23:11:02.870Z,3.70
2023-07-21T23:13:04.516Z,3.57
2023-07-21T23:15:08.699Z,3.47
2023-07-21T23:17:10.550Z,3.70
2023-07-21T23:19:12.360Z,3.90
2023-07-21T23:21:14.131Z,3.47
2023-07-21T23:23:18.972Z,5.00
2023-07-21T23:25:20.599Z,3.90
2023-07-21T23:27:22.212Z,3.40
2023-07-21T23:29:23.973Z,4.00
2023-07-21T23:31:27.122Z,3.60
2023-07-21T23:33:29.152Z,3.80
2023-07-21T23:35:30.773Z,5.30
2023-07-21T23:37:32.472Z,3.90
2023-07-21T23:39:34.224Z,3.87
2023-07-21T23:41:35.980Z,4.70
2023-07-21T23:43:37.598Z,5.03
2023-07-21T23:45:39.498Z,5.33
2023-07-21T23:47:44.216Z,4.40
2023-07-21T23:49:45.865Z,4.30
2023-07-21T23:51:49.843Z,4.27
2023-07-21T23:53:51.569Z,3.90
2023-07-21T23:55:53.253Z,4.23
2023-07-21T23:58:04.229Z,3.60
